Check out our new BloomSky Weather System.

Active alerts


No alerts


Thunder radar  blitzortung!


Rain radar more information rain snow radar


Visit our other weather sites:

Template documentation
and downloads

And another site



Weather Underground History page Text

Daily Summary for February 5, 2017 Units:  English    Metric   Both
« Previous Day
Next Day »
Daily Weekly Monthly Yearly Custom
  High: Low: Average:
Temperature: 79.2 °F 63.0 °F 70.4 °F
Dew Point: 69.8 °F 61.5 °F 66.4 °F
Humidity: 97 % 65 % 88 %
Wind Speed: 12.0 mph 0.0 mph 4.4 mph
Wind Gust: 16.0 mph - -
Wind:- - SSE
Pressure: 30.13 in 30.01 in -
Precipitation: 0.05 in    
Historical Graphs
 
 
Tabular Data for February 5, 2017
Time Temperature Dew Point Pressure Wind Wind Speed Wind Gust Humidity Rainfall Rate (Hourly)
00:02 63.0 °F 61.5 °F 30.10 in SE 3.0 mph 9.0 mph 95 % 0.00 in
00:07 63.1 °F 61.7 °F 30.10 in East 4.0 mph 8.0 mph 95 % 0.00 in
00:12 63.1 °F 61.7 °F 30.10 in ESE 4.0 mph 8.0 mph 95 % 0.00 in
00:17 63.1 °F 61.7 °F 30.10 in SE 5.0 mph 7.0 mph 95 % 0.00 in
00:22 63.1 °F 61.7 °F 30.10 in East 2.0 mph 7.0 mph 95 % 0.00 in
00:27 63.3 °F 61.9 °F 30.10 in SE 4.0 mph 7.0 mph 95 % 0.00 in
00:32 63.3 °F 61.9 °F 30.09 in SE 4.0 mph 7.0 mph 95 % 0.00 in
00:37 63.3 °F 61.9 °F 30.09 in SE 4.0 mph 7.0 mph 95 % 0.00 in
00:42 63.3 °F 61.9 °F 30.09 in ESE 4.0 mph 7.0 mph 95 % 0.00 in
00:47 63.5 °F 62.1 °F 30.09 in SSE 2.0 mph 7.0 mph 95 % 0.00 in
00:52 63.7 °F 62.2 °F 30.09 in SE 4.0 mph 7.0 mph 95 % 0.00 in
00:57 63.7 °F 62.2 °F 30.09 in SE 1.0 mph 7.0 mph 95 % 0.00 in
01:02 63.9 °F 62.4 °F 30.09 in SE 3.0 mph 5.0 mph 95 % 0.00 in
01:07 63.9 °F 62.4 °F 30.08 in SE 4.0 mph 6.0 mph 95 % 0.00 in
01:12 64.0 °F 62.6 °F 30.08 in East 3.0 mph 8.0 mph 95 % 0.00 in
01:17 64.0 °F 62.6 °F 30.08 in South 4.0 mph 8.0 mph 95 % 0.00 in
01:22 64.2 °F 62.8 °F 30.08 in SE 4.0 mph 8.0 mph 95 % 0.00 in
01:27 64.2 °F 63.1 °F 30.07 in SE 3.0 mph 8.0 mph 96 % 0.00 in
01:32 64.2 °F 63.1 °F 30.08 in SE 2.0 mph 8.0 mph 96 % 0.00 in
01:37 64.4 °F 63.3 °F 30.08 in SE 4.0 mph 8.0 mph 96 % 0.00 in
01:41 64.6 °F 63.5 °F 30.08 in SSE 3.0 mph 6.0 mph 96 % 0.00 in
01:46 64.6 °F 63.5 °F 30.08 in SE 1.0 mph 6.0 mph 96 % 0.00 in
01:51 64.6 °F 63.5 °F 30.08 in SE 3.0 mph 6.0 mph 96 % 0.00 in
01:56 64.8 °F 63.7 °F 30.08 in SE 3.0 mph 6.0 mph 96 % 0.00 in
02:01 64.8 °F 63.7 °F 30.08 in SE 4.0 mph 6.0 mph 96 % 0.00 in
02:06 64.8 °F 63.7 °F 30.08 in ESE 2.0 mph 5.0 mph 96 % 0.00 in
02:11 64.8 °F 63.7 °F 30.08 in East 3.0 mph 5.0 mph 96 % 0.00 in
02:16 64.9 °F 63.9 °F 30.08 in SE 3.0 mph 4.0 mph 96 % 0.00 in
02:21 64.9 °F 63.9 °F 30.08 in ESE 3.0 mph 7.0 mph 96 % 0.00 in
02:26 64.9 °F 63.9 °F 30.07 in ESE 2.0 mph 7.0 mph 96 % 0.00 in
02:31 65.1 °F 64.0 °F 30.07 in SSE 1.0 mph 7.0 mph 96 % 0.00 in
02:36 65.1 °F 64.0 °F 30.07 in SE 1.0 mph 4.0 mph 96 % 0.00 in
02:41 65.1 °F 64.0 °F 30.07 in SSE 2.0 mph 3.0 mph 96 % 0.00 in
02:46 65.3 °F 64.0 °F 30.07 in SSE 1.0 mph 3.0 mph 96 % 0.00 in
02:51 65.5 °F 64.2 °F 30.07 in SE 2.0 mph 3.0 mph 96 % 0.00 in
02:56 65.7 °F 64.4 °F 30.07 in SE 1.0 mph 4.0 mph 96 % 0.00 in
03:01 65.7 °F 64.4 °F 30.06 in ESE 1.0 mph 6.0 mph 96 % 0.00 in
03:06 65.8 °F 64.6 °F 30.06 in ESE 1.0 mph 6.0 mph 96 % 0.00 in
03:11 65.8 °F 64.6 °F 30.06 in SE 3.0 mph 6.0 mph 96 % 0.00 in
03:16 66.0 °F 64.8 °F 30.06 in SSE 2.0 mph 4.0 mph 96 % 0.00 in
03:22 66.2 °F 65.3 °F 30.06 in SSE 2.0 mph 6.0 mph 97 % 0.00 in
03:27 66.4 °F 65.5 °F 30.06 in SE 3.0 mph 6.0 mph 97 % 0.00 in
03:32 66.4 °F 65.5 °F 30.06 in SSE 2.0 mph 6.0 mph 97 % 0.00 in
03:37 66.6 °F 65.7 °F 30.06 in SSE 2.0 mph 6.0 mph 97 % 0.00 in
03:42 66.6 °F 65.7 °F 30.06 in SW 4.0 mph 6.0 mph 97 % 0.00 in
03:47 66.6 °F 65.7 °F 30.06 in South 3.0 mph 6.0 mph 97 % 0.00 in
03:52 66.6 °F 65.7 °F 30.06 in South 5.0 mph 6.0 mph 97 % 0.00 in
03:57 66.6 °F 65.7 °F 30.06 in SSE 1.0 mph 6.0 mph 97 % 0.00 in
04:02 66.6 °F 65.7 °F 30.06 in SSE 3.0 mph 6.0 mph 97 % 0.00 in
04:07 66.7 °F 65.8 °F 30.06 in SE 2.0 mph 6.0 mph 97 % 0.00 in
04:12 66.6 °F 65.7 °F 30.06 in ESE 7.0 mph 7.0 mph 97 % 0.00 in
04:17 66.7 °F 65.8 °F 30.06 in ESE 3.0 mph 8.0 mph 97 % 0.00 in
04:22 66.7 °F 65.8 °F 30.06 in SSE 4.0 mph 8.0 mph 97 % 0.00 in
04:27 66.7 °F 65.8 °F 30.06 in SSE 3.0 mph 8.0 mph 97 % 0.00 in
04:32 66.7 °F 65.8 °F 30.06 in SSE 4.0 mph 7.0 mph 97 % 0.00 in
04:37 66.7 °F 65.8 °F 30.06 in SSE 2.0 mph 7.0 mph 97 % 0.00 in
04:42 66.7 °F 65.8 °F 30.06 in SE 5.0 mph 7.0 mph 97 % 0.00 in
04:47 66.7 °F 65.8 °F 30.06 in SE 4.0 mph 6.0 mph 97 % 0.00 in
04:52 66.9 °F 66.0 °F 30.06 in SSE 3.0 mph 7.0 mph 97 % 0.00 in
04:57 66.7 °F 65.8 °F 30.06 in SSE 1.0 mph 7.0 mph 97 % 0.00 in
05:02 66.9 °F 66.0 °F 30.06 in SE 5.0 mph 7.0 mph 97 % 0.00 in
05:07 66.9 °F 66.0 °F 30.06 in South 2.0 mph 5.0 mph 97 % 0.00 in
05:12 66.9 °F 66.0 °F 30.07 in SSE 3.0 mph 8.0 mph 97 % 0.00 in
05:17 66.9 °F 66.0 °F 30.06 in SSE 1.0 mph 8.0 mph 97 % 0.00 in
05:22 67.1 °F 66.2 °F 30.07 in SE 5.0 mph 8.0 mph 97 % 0.00 in
05:27 67.1 °F 66.2 °F 30.07 in ESE 2.0 mph 7.0 mph 97 % 0.00 in
05:32 67.1 °F 66.2 °F 30.07 in South 2.0 mph 7.0 mph 97 % 0.00 in
05:37 67.3 °F 66.4 °F 30.07 in ESE 3.0 mph 6.0 mph 97 % 0.00 in
05:42 67.3 °F 66.4 °F 30.07 in SE 3.0 mph 6.0 mph 97 % 0.00 in
05:47 67.3 °F 66.4 °F 30.07 in SE 2.0 mph 6.0 mph 97 % 0.00 in
05:52 67.3 °F 66.4 °F 30.08 in SW 3.0 mph 6.0 mph 97 % 0.00 in
05:57 67.3 °F 66.4 °F 30.08 in South 5.0 mph 5.0 mph 97 % 0.00 in
06:02 67.3 °F 66.4 °F 30.08 in SSE 2.0 mph 7.0 mph 97 % 0.00 in
06:07 67.3 °F 66.4 °F 30.08 in SSE 2.0 mph 7.0 mph 97 % 0.00 in
06:12 67.3 °F 66.4 °F 30.08 in SSE 3.0 mph 7.0 mph 97 % 0.00 in
06:17 67.3 °F 66.4 °F 30.08 in South 2.0 mph 7.0 mph 97 % 0.00 in
06:22 67.3 °F 66.4 °F 30.08 in SE 1.0 mph 7.0 mph 97 % 0.00 in
06:27 67.3 °F 66.4 °F 30.08 in SE 3.0 mph 5.0 mph 97 % 0.00 in
06:32 67.3 °F 66.4 °F 30.08 in South 3.0 mph 5.0 mph 97 % 0.00 in
06:37 67.3 °F 66.4 °F 30.08 in South 2.0 mph 5.0 mph 97 % 0.00 in
06:42 67.3 °F 66.4 °F 30.08 in South 2.0 mph 5.0 mph 97 % 0.00 in
06:47 67.5 °F 66.6 °F 30.08 in SSE 2.0 mph 5.0 mph 97 % 0.00 in
06:53 67.3 °F 66.4 °F 30.08 in SE 3.0 mph 5.0 mph 97 % 0.00 in
06:58 67.5 °F 66.6 °F 30.08 in SSW 2.0 mph 6.0 mph 97 % 0.00 in
07:03 67.3 °F 66.4 °F 30.08 in SE 3.0 mph 9.0 mph 97 % 0.00 in
07:08 67.3 °F 66.4 °F 30.08 in SE 2.0 mph 9.0 mph 97 % 0.00 in
07:13 67.5 °F 66.6 °F 30.08 in SSE 2.0 mph 9.0 mph 97 % 0.00 in
07:18 67.5 °F 66.6 °F 30.09 in South 4.0 mph 7.0 mph 97 % 0.00 in
07:23 67.5 °F 66.6 °F 30.09 in South 3.0 mph 7.0 mph 97 % 0.00 in
07:28 67.5 °F 66.6 °F 30.09 in SE 3.0 mph 6.0 mph 97 % 0.00 in
07:33 67.5 °F 66.6 °F 30.09 in SE 3.0 mph 8.0 mph 97 % 0.00 in
07:38 67.6 °F 66.7 °F 30.09 in South 2.0 mph 8.0 mph 97 % 0.00 in
07:43 67.6 °F 66.7 °F 30.09 in SSE 2.0 mph 8.0 mph 97 % 0.00 in
07:48 67.6 °F 66.7 °F 30.09 in SSE 4.0 mph 7.0 mph 97 % 0.00 in
07:53 67.8 °F 66.9 °F 30.09 in SE 5.0 mph 7.0 mph 97 % 0.00 in
07:58 67.8 °F 66.9 °F 30.09 in SSE 5.0 mph 8.0 mph 97 % 0.00 in
08:03 67.8 °F 66.9 °F 30.09 in SSE 3.0 mph 9.0 mph 97 % 0.00 in
08:08 68.0 °F 67.1 °F 30.10 in South 5.0 mph 9.0 mph 97 % 0.00 in
08:13 68.0 °F 67.1 °F 30.10 in South 6.0 mph 9.0 mph 97 % 0.00 in
08:18 68.2 °F 67.3 °F 30.10 in South 2.0 mph 7.0 mph 97 % 0.00 in
08:23 68.2 °F 67.3 °F 30.10 in SSE 4.0 mph 7.0 mph 97 % 0.00 in
08:28 68.2 °F 67.3 °F 30.10 in South 4.0 mph 7.0 mph 97 % 0.00 in
08:33 68.4 °F 67.5 °F 30.11 in ESE 5.0 mph 7.0 mph 97 % 0.00 in
08:38 68.4 °F 67.5 °F 30.11 in South 4.0 mph 8.0 mph 97 % 0.00 in
08:43 68.5 °F 67.6 °F 30.11 in SE 1.0 mph 8.0 mph 97 % 0.00 in
08:48 68.5 °F 67.6 °F 30.11 in SSW 3.0 mph 8.0 mph 97 % 0.00 in
08:53 68.5 °F 67.3 °F 30.11 in South 3.0 mph 7.0 mph 96 % 0.00 in
08:58 68.5 °F 67.3 °F 30.12 in SE 3.0 mph 7.0 mph 96 % 0.00 in
09:03 68.5 °F 67.3 °F 30.12 in South 4.0 mph 5.0 mph 96 % 0.00 in
09:08 68.5 °F 67.6 °F 30.12 in SSE 2.0 mph 7.0 mph 97 % 0.01 in
09:13 68.5 °F 67.6 °F 30.12 in SSE 1.0 mph 7.0 mph 97 % 0.01 in
09:18 68.5 °F 67.6 °F 30.12 in South 3.0 mph 7.0 mph 97 % 0.02 in
09:24 68.5 °F 67.6 °F 30.12 in SE 3.0 mph 8.0 mph 97 % 0.03 in
09:29 68.5 °F 67.6 °F 30.12 in SSW 4.0 mph 8.0 mph 97 % 0.03 in
09:34 68.7 °F 67.8 °F 30.12 in SSE 1.0 mph 8.0 mph 97 % 0.03 in
09:39 68.7 °F 67.8 °F 30.12 in South 3.0 mph 6.0 mph 97 % 0.04 in
09:44 68.7 °F 67.8 °F 30.12 in Calm   5.0 mph 97 % 0.04 in
09:49 68.7 °F 67.8 °F 30.13 in SW 3.0 mph 5.0 mph 97 % 0.05 in
09:54 68.7 °F 67.8 °F 30.13 in SSE 3.0 mph 8.0 mph 97 % 0.05 in
09:59 69.1 °F 68.2 °F 30.13 in Calm   9.0 mph 97 % 0.05 in
10:04 69.4 °F 68.5 °F 30.13 in SSE 4.0 mph 9.0 mph 97 % 0.05 in
10:09 69.6 °F 68.7 °F 30.13 in SE 4.0 mph 9.0 mph 97 % 0.04 in
10:14 69.6 °F 68.7 °F 30.13 in SSE 6.0 mph 7.0 mph 97 % 0.04 in
10:19 70.2 °F 69.3 °F 30.13 in SSW 5.0 mph 8.0 mph 97 % 0.03 in
10:24 70.3 °F 69.1 °F 30.13 in SSE 7.0 mph 10.0 mph 96 % 0.02 in
10:29 70.5 °F 69.3 °F 30.13 in South 6.0 mph 10.0 mph 96 % 0.02 in
10:34 70.7 °F 69.3 °F 30.13 in South 4.0 mph 10.0 mph 95 % 0.01 in
10:39 70.9 °F 69.1 °F 30.13 in SE 6.0 mph 9.0 mph 94 % 0.01 in
10:44 70.9 °F 69.1 °F 30.13 in SE 4.0 mph 11.0 mph 94 % 0.01 in
10:49 71.1 °F 69.3 °F 30.13 in SW 4.0 mph 11.0 mph 94 % 0.00 in
10:54 71.2 °F 69.4 °F 30.13 in South 4.0 mph 11.0 mph 94 % 0.00 in
10:59 71.2 °F 69.1 °F 30.13 in South 5.0 mph 9.0 mph 93 % 0.00 in
11:04 71.4 °F 69.3 °F 30.12 in South 5.0 mph 9.0 mph 93 % 0.00 in
11:09 71.8 °F 69.6 °F 30.12 in SSE 4.0 mph 9.0 mph 93 % 0.00 in
11:14 71.8 °F 69.6 °F 30.12 in South 7.0 mph 9.0 mph 93 % 0.00 in
11:19 71.8 °F 69.3 °F 30.12 in South 2.0 mph 7.0 mph 92 % 0.00 in
11:24 72.1 °F 69.6 °F 30.12 in Calm   7.0 mph 92 % 0.00 in
11:29 72.3 °F 69.6 °F 30.12 in SSW 3.0 mph 7.0 mph 91 % 0.00 in
11:34 72.7 °F 69.6 °F 30.11 in SSW 5.0 mph 7.0 mph 90 % 0.00 in
11:39 72.9 °F 69.8 °F 30.11 in South 2.0 mph 7.0 mph 90 % 0.00 in
11:44 73.0 °F 69.6 °F 30.11 in South 5.0 mph 7.0 mph 89 % 0.00 in
11:49 73.4 °F 69.6 °F 30.10 in SSE 7.0 mph 8.0 mph 88 % 0.00 in
11:54 73.8 °F 69.6 °F 30.10 in SSW 6.0 mph 9.0 mph 87 % 0.00 in
11:59 73.9 °F 68.7 °F 30.10 in South 5.0 mph 10.0 mph 84 % 0.00 in
12:04 74.7 °F 69.4 °F 30.09 in SSW 6.0 mph 10.0 mph 84 % 0.00 in
12:09 74.8 °F 68.9 °F 30.09 in SSW 5.0 mph 10.0 mph 82 % 0.00 in
12:14 75.0 °F 69.1 °F 30.09 in South 2.0 mph 10.0 mph 82 % 0.00 in
12:19 75.4 °F 69.4 °F 30.09 in South 4.0 mph 10.0 mph 82 % 0.00 in
12:24 75.6 °F 68.5 °F 30.09 in SSW 7.0 mph 9.0 mph 79 % 0.00 in
12:29 75.7 °F 68.7 °F 30.08 in SSE 5.0 mph 11.0 mph 79 % 0.00 in
12:34 76.1 °F 68.7 °F 30.07 in SSE 5.0 mph 13.0 mph 78 % 0.00 in
12:39 76.5 °F 68.0 °F 30.07 in SW 8.0 mph 14.0 mph 75 % 0.00 in
12:44 76.8 °F 69.1 °F 30.07 in South 8.0 mph 14.0 mph 77 % 0.00 in
12:50 77.5 °F 68.5 °F 30.06 in SSW 5.0 mph 14.0 mph 74 % 0.00 in
12:55 77.7 °F 67.6 °F 30.06 in SSE 6.0 mph 13.0 mph 71 % 0.00 in
13:00 78.1 °F 67.5 °F 30.06 in SSE 12.0 mph 16.0 mph 70 % 0.00 in
13:05 78.3 °F 67.6 °F 30.05 in SSE 11.0 mph 16.0 mph 70 % 0.00 in
13:10 78.6 °F 66.7 °F 30.05 in South 7.0 mph 16.0 mph 67 % 0.00 in
13:15 79.2 °F 66.4 °F 30.04 in ESE 7.0 mph 15.0 mph 65 % 0.00 in
13:20 79.0 °F 66.6 °F 30.04 in SSE 7.0 mph 15.0 mph 66 % 0.00 in
13:25 78.6 °F 66.7 °F 30.04 in SSE 6.0 mph 14.0 mph 67 % 0.00 in
13:30 78.1 °F 66.7 °F 30.04 in SSE 8.0 mph 14.0 mph 68 % 0.00 in
13:35 77.7 °F 67.1 °F 30.04 in SSE 3.0 mph 14.0 mph 70 % 0.00 in
13:40 78.1 °F 67.1 °F 30.04 in SSE 3.0 mph 12.0 mph 69 % 0.00 in
13:45 77.5 °F 66.9 °F 30.03 in SE 3.0 mph 13.0 mph 70 % 0.00 in
13:50 77.5 °F 66.9 °F 30.03 in ESE 9.0 mph 13.0 mph 70 % 0.00 in
13:55 77.5 °F 66.6 °F 30.03 in South 7.0 mph 13.0 mph 69 % 0.00 in
14:00 77.4 °F 66.4 °F 30.03 in SSW 8.0 mph 14.0 mph 69 % 0.00 in
14:05 77.2 °F 66.6 °F 30.03 in South 4.0 mph 14.0 mph 70 % 0.00 in
14:10 77.2 °F 66.2 °F 30.02 in SSE 10.0 mph 14.0 mph 69 % 0.00 in
14:15 77.0 °F 66.0 °F 30.02 in SSE 5.0 mph 13.0 mph 69 % 0.00 in
14:20 76.8 °F 65.8 °F 30.02 in SSE 5.0 mph 14.0 mph 69 % 0.00 in
14:25 76.8 °F 66.2 °F 30.02 in SSW 5.0 mph 14.0 mph 70 % 0.00 in
14:30 77.2 °F 66.2 °F 30.02 in SSE 6.0 mph 14.0 mph 69 % 0.00 in
14:35 77.2 °F 66.6 °F 30.02 in South 3.0 mph 11.0 mph 70 % 0.00 in
14:41 77.4 °F 66.7 °F 30.02 in SSW 6.0 mph 11.0 mph 70 % 0.00 in
14:46 77.4 °F 66.7 °F 30.02 in SE 1.0 mph 11.0 mph 70 % 0.00 in
14:51 77.4 °F 66.7 °F 30.01 in South 4.0 mph 8.0 mph 70 % 0.00 in
14:56 77.2 °F 66.6 °F 30.01 in SE 7.0 mph 9.0 mph 70 % 0.00 in
15:01 76.8 °F 66.2 °F 30.01 in SSW 5.0 mph 9.0 mph 70 % 0.00 in
15:06 76.8 °F 66.2 °F 30.01 in SSW 2.0 mph 11.0 mph 70 % 0.00 in
15:11 76.8 °F 66.2 °F 30.01 in SSE 6.0 mph 11.0 mph 70 % 0.00 in
15:16 76.8 °F 66.2 °F 30.01 in South 4.0 mph 11.0 mph 70 % 0.00 in
15:21 76.8 °F 65.8 °F 30.01 in SW 6.0 mph 11.0 mph 69 % 0.00 in
15:26 76.6 °F 66.2 °F 30.01 in SSW 4.0 mph 11.0 mph 70 % 0.00 in
15:31 76.6 °F 66.2 °F 30.01 in SSW 5.0 mph 11.0 mph 70 % 0.00 in
15:36 76.6 °F 66.2 °F 30.01 in SSW 5.0 mph 11.0 mph 70 % 0.00 in
15:41 76.5 °F 66.0 °F 30.01 in SSW 8.0 mph 11.0 mph 70 % 0.00 in
15:46 76.6 °F 66.6 °F 30.01 in South 9.0 mph 11.0 mph 71 % 0.00 in
15:51 76.6 °F 66.6 °F 30.01 in South 3.0 mph 11.0 mph 71 % 0.00 in
15:56 76.6 °F 66.2 °F 30.01 in South 4.0 mph 9.0 mph 70 % 0.00 in
16:01 76.6 °F 66.6 °F 30.01 in SSW 2.0 mph 9.0 mph 71 % 0.00 in
16:06 76.8 °F 67.1 °F 30.01 in South 6.0 mph 8.0 mph 72 % 0.00 in
16:11 77.2 °F 66.6 °F 30.01 in SSE 4.0 mph 8.0 mph 70 % 0.00 in
16:16 77.4 °F 66.4 °F 30.01 in South 4.0 mph 8.0 mph 69 % 0.00 in
16:21 77.5 °F 66.6 °F 30.01 in SE 10.0 mph 10.0 mph 69 % 0.00 in
16:26 77.7 °F 66.4 °F 30.01 in South 5.0 mph 12.0 mph 68 % 0.00 in
16:31 77.9 °F 66.9 °F 30.01 in SSE 5.0 mph 12.0 mph 69 % 0.00 in
16:36 77.7 °F 66.7 °F 30.01 in SE 7.0 mph 12.0 mph 69 % 0.00 in
16:42 77.4 °F 66.7 °F 30.01 in SE 7.0 mph 13.0 mph 70 % 0.00 in
16:47 77.2 °F 66.6 °F 30.01 in SSE 5.0 mph 13.0 mph 70 % 0.00 in
16:52 77.2 °F 67.1 °F 30.01 in SSE 6.0 mph 13.0 mph 71 % 0.00 in
16:57 77.0 °F 66.9 °F 30.01 in ESE 10.0 mph 12.0 mph 71 % 0.00 in
17:02 76.8 °F 67.1 °F 30.01 in ESE 6.0 mph 11.0 mph 72 % 0.00 in
17:07 76.8 °F 67.8 °F 30.01 in ESE 10.0 mph 11.0 mph 74 % 0.00 in
17:12 76.5 °F 67.6 °F 30.01 in SE 3.0 mph 12.0 mph 74 % 0.00 in
17:17 76.3 °F 67.5 °F 30.01 in SE 7.0 mph 12.0 mph 74 % 0.00 in
17:22 76.1 °F 67.6 °F 30.01 in SE 7.0 mph 12.0 mph 75 % 0.00 in
17:27 75.9 °F 67.5 °F 30.01 in SE 9.0 mph 10.0 mph 75 % 0.00 in
17:32 75.7 °F 67.3 °F 30.01 in South 4.0 mph 11.0 mph 75 % 0.00 in
17:37 75.6 °F 67.1 °F 30.01 in SE 10.0 mph 11.0 mph 75 % 0.00 in
17:42 75.4 °F 66.9 °F 30.01 in South 6.0 mph 12.0 mph 75 % 0.00 in
17:47 75.4 °F 66.9 °F 30.01 in ESE 7.0 mph 12.0 mph 75 % 0.00 in
17:52 75.0 °F 66.6 °F 30.01 in SSW 5.0 mph 12.0 mph 75 % 0.00 in
17:57 74.8 °F 66.4 °F 30.01 in East 5.0 mph 13.0 mph 75 % 0.00 in
18:02 74.7 °F 66.6 °F 30.01 in ESE 11.0 mph 13.0 mph 76 % 0.00 in
18:07 74.5 °F 66.4 °F 30.01 in SE 4.0 mph 13.0 mph 76 % 0.00 in
18:12 74.5 °F 66.4 °F 30.01 in SSE 3.0 mph 12.0 mph 76 % 0.00 in
18:17 74.1 °F 66.0 °F 30.01 in SE 9.0 mph 12.0 mph 76 % 0.00 in
18:22 73.9 °F 65.8 °F 30.01 in South 6.0 mph 11.0 mph 76 % 0.00 in
18:27 73.8 °F 65.7 °F 30.01 in SSE 7.0 mph 11.0 mph 76 % 0.00 in
18:32 73.6 °F 65.8 °F 30.02 in South 5.0 mph 11.0 mph 77 % 0.00 in
18:37 73.2 °F 65.7 °F 30.01 in SE 6.0 mph 12.0 mph 77 % 0.00 in
18:42 73.0 °F 65.8 °F 30.02 in SSE 6.0 mph 12.0 mph 78 % 0.00 in
18:43 73.0 °F 65.8 °F 30.02 in East 8.0 mph 12.0 mph 78 % 0.00 in
18:48 72.9 °F 66.0 °F 30.02 in SE 5.0 mph 12.0 mph 79 % 0.00 in
18:53 72.7 °F 65.8 °F 30.02 in SSE 6.0 mph 13.0 mph 79 % 0.00 in
18:58 72.5 °F 66.0 °F 30.02 in SSW 4.0 mph 13.0 mph 80 % 0.00 in
19:03 72.3 °F 65.8 °F 30.02 in ESE 7.0 mph 13.0 mph 80 % 0.00 in
19:08 72.1 °F 66.0 °F 30.03 in South 4.0 mph 12.0 mph 81 % 0.00 in
19:13 72.1 °F 66.0 °F 30.03 in SSE 8.0 mph 12.0 mph 81 % 0.00 in
19:18 72.0 °F 66.2 °F 30.03 in SE 6.0 mph 12.0 mph 82 % 0.00 in
19:23 71.8 °F 66.0 °F 30.03 in SSW 10.0 mph 10.0 mph 82 % 0.00 in
19:28 71.6 °F 66.2 °F 30.03 in SSE 4.0 mph 10.0 mph 83 % 0.00 in
19:33 71.4 °F 66.4 °F 30.03 in SW 4.0 mph 10.0 mph 84 % 0.00 in
19:38 71.2 °F 66.6 °F 30.04 in South 4.0 mph 10.0 mph 85 % 0.00 in
19:43 71.1 °F 66.4 °F 30.03 in SSE 3.0 mph 9.0 mph 85 % 0.00 in
19:48 70.9 °F 66.7 °F 30.04 in SSE 5.0 mph 9.0 mph 87 % 0.00 in
19:53 70.9 °F 66.7 °F 30.03 in SSW 9.0 mph 12.0 mph 87 % 0.00 in
19:58 70.5 °F 66.7 °F 30.03 in SE 8.0 mph 12.0 mph 88 % 0.00 in
20:03 70.5 °F 66.7 °F 30.03 in South 5.0 mph 12.0 mph 88 % 0.00 in
20:08 70.3 °F 66.9 °F 30.03 in South 5.0 mph 12.0 mph 89 % 0.00 in
20:13 70.2 °F 66.7 °F 30.03 in South 6.0 mph 12.0 mph 89 % 0.00 in
20:18 70.2 °F 66.7 °F 30.03 in SW 7.0 mph 10.0 mph 89 % 0.00 in
20:23 70.0 °F 66.9 °F 30.04 in SSE 3.0 mph 11.0 mph 90 % 0.00 in
20:28 69.8 °F 66.7 °F 30.04 in SE 7.0 mph 11.0 mph 90 % 0.00 in
20:33 69.6 °F 66.9 °F 30.03 in SSE 7.0 mph 14.0 mph 91 % 0.00 in
20:38 69.6 °F 66.9 °F 30.03 in SSE 3.0 mph 14.0 mph 91 % 0.00 in
20:43 69.4 °F 66.7 °F 30.03 in SSW 8.0 mph 14.0 mph 91 % 0.00 in
20:48 69.4 °F 67.1 °F 30.03 in ESE 5.0 mph 11.0 mph 92 % 0.00 in
20:53 69.4 °F 67.1 °F 30.03 in SSE 5.0 mph 11.0 mph 92 % 0.00 in
20:58 69.4 °F 67.1 °F 30.03 in SSE 4.0 mph 11.0 mph 92 % 0.00 in
21:03 69.3 °F 67.1 °F 30.04 in SSE 4.0 mph 11.0 mph 93 % 0.00 in
21:08 69.3 °F 67.1 °F 30.03 in SE 7.0 mph 10.0 mph 93 % 0.00 in
21:13 69.3 °F 67.1 °F 30.03 in SSE 4.0 mph 10.0 mph 93 % 0.00 in
21:18 69.1 °F 66.9 °F 30.03 in South 4.0 mph 10.0 mph 93 % 0.00 in
21:23 69.1 °F 67.3 °F 30.03 in SE 8.0 mph 11.0 mph 94 % 0.00 in
21:29 69.1 °F 67.3 °F 30.03 in SSE 8.0 mph 12.0 mph 94 % 0.00 in
21:34 69.1 °F 67.3 °F 30.03 in SSW 4.0 mph 14.0 mph 94 % 0.00 in
21:39 69.1 °F 67.3 °F 30.03 in SE 6.0 mph 14.0 mph 94 % 0.00 in
21:44 69.1 °F 67.3 °F 30.03 in SSE 3.0 mph 14.0 mph 94 % 0.00 in
21:49 68.9 °F 67.1 °F 30.03 in ESE 6.0 mph 11.0 mph 94 % 0.00 in
21:54 68.9 °F 67.1 °F 30.03 in South 4.0 mph 10.0 mph 94 % 0.00 in
21:59 68.7 °F 66.9 °F 30.03 in SSE 8.0 mph 11.0 mph 94 % 0.00 in
22:04 68.7 °F 66.9 °F 30.03 in South 6.0 mph 11.0 mph 94 % 0.00 in
22:09 68.7 °F 66.9 °F 30.03 in South 3.0 mph 11.0 mph 94 % 0.00 in
22:14 68.7 °F 66.9 °F 30.02 in SSE 4.0 mph 10.0 mph 94 % 0.00 in
22:19 68.7 °F 66.9 °F 30.02 in SSE 4.0 mph 11.0 mph 94 % 0.00 in
22:24 68.7 °F 66.9 °F 30.02 in South 2.0 mph 11.0 mph 94 % 0.00 in
22:29 68.7 °F 66.9 °F 30.03 in ESE 4.0 mph 11.0 mph 94 % 0.00 in
22:34 68.7 °F 66.9 °F 30.03 in SSE 6.0 mph 10.0 mph 94 % 0.00 in
22:39 68.7 °F 66.9 °F 30.03 in South 7.0 mph 10.0 mph 94 % 0.00 in
22:44 68.7 °F 66.9 °F 30.03 in SW 6.0 mph 11.0 mph 94 % 0.00 in
22:49 68.7 °F 66.6 °F 30.02 in SSW 7.0 mph 11.0 mph 93 % 0.00 in
22:54 68.7 °F 66.6 °F 30.02 in ESE 5.0 mph 11.0 mph 93 % 0.00 in
22:59 68.7 °F 66.6 °F 30.02 in South 8.0 mph 15.0 mph 93 % 0.00 in
23:04 68.7 °F 66.6 °F 30.02 in SE 8.0 mph 15.0 mph 93 % 0.00 in
23:09 68.7 °F 66.6 °F 30.02 in SSE 7.0 mph 15.0 mph 93 % 0.00 in
23:14 68.7 °F 66.6 °F 30.02 in ESE 4.0 mph 12.0 mph 93 % 0.00 in
23:19 68.7 °F 66.6 °F 30.02 in SSW 5.0 mph 11.0 mph 93 % 0.00 in
23:24 68.7 °F 66.6 °F 30.02 in SSE 3.0 mph 11.0 mph 93 % 0.00 in
23:29 68.7 °F 66.6 °F 30.02 in ESE 2.0 mph 10.0 mph 93 % 0.00 in
23:34 68.7 °F 66.6 °F 30.01 in South 6.0 mph 10.0 mph 93 % 0.00 in
23:39 68.7 °F 66.6 °F 30.02 in SE 5.0 mph 10.0 mph 93 % 0.00 in
23:44 68.5 °F 66.4 °F 30.01 in SE 2.0 mph 10.0 mph 93 % 0.00 in
23:50 68.5 °F 66.4 °F 30.01 in SE 5.0 mph 10.0 mph 93 % 0.00 in
23:55 68.5 °F 66.4 °F 30.01 in SSE 5.0 mph 8.0 mph 93 % 0.00 in
Spring, Texas: Villages of Bridgestone
Compliments of Weather Underground - 2.75 mb

Script developed by  Jim McMurry - jmcmurry@mwt.net Adapted for the template by  Wim van der Kuil - Leuven-Template.eu

You find our weather info also at:

UK Metoffice

WeatherCloud

Weather Underground

Mid-South Weather Network

AWEKAS

Citizen Weather Observer Program (CWOP)

HAMweather, WeatherForYou, PWS Weather

Equipment we use:

Weather-station
Davis Vantage Vue

Weather-program
Meteohub

Weather-server
Debian 7.9 x86 (Guest)

Provider
DreamHost

Davis Vantage Vue

Meteohub

Debian 7.9 x86 (Guest)

DreamHost